Time;durP1;ratioP1;P1;durP2;ratioP2;P2;SDS_P1;SDS_P2;PMS_P1;PMS_P2;Temp;Humidity;BMP_temperature;BMP_pressure;BME280_temperature;BME280_humidity;BME280_pressure;Samples;Min_cycle;Max_cycle;Signal;HPM_P1;HPM_P2
2021/04/21 00:02:57;;;;;;;29.57;14.33;;;;;;;;;;6119979;23;20169;-89
2021/04/21 00:06:03;;;;;;;29.23;16.03;;;;;;;;;;6118998;23;20181;-89
2021/04/21 00:09:11;;;;;;;38.03;16.50;;;;;;;;;;6119017;23;20161;-87
2021/04/21 00:12:15;;;;;;;36.10;17.77;;;;;;;;;;6117914;23;20172;-90
2021/04/21 00:15:21;;;;;;;35.13;17.07;;;;;;;;;;6117900;23;20219;-91
2021/04/21 00:18:26;;;;;;;41.90;17.97;;;;;;;;;;6116237;23;20185;-89
2021/04/21 00:21:32;;;;;;;37.57;17.43;;;;;;;;;;6118404;23;20161;-89
2021/04/21 00:24:39;;;;;;;37.00;17.27;;;;;;;;;;6117675;23;20632;-87
2021/04/21 00:27:45;;;;;;;42.57;17.60;;;;;;;;;;6118585;23;20200;-90
2021/04/21 00:30:50;;;;;;;48.13;19.77;;;;;;;;;;6117918;23;20173;-87
2021/04/21 00:33:56;;;;;;;48.27;18.83;;;;;;;;;;6119364;23;20180;-89
2021/04/21 00:37:01;;;;;;;43.33;19.10;;;;;;;;;;6119413;23;20169;-90
2021/04/21 00:40:09;;;;;;;46.10;17.90;;;;;;;;;;6117244;23;20248;-86
2021/04/21 00:43:19;;;;;;;48.17;17.93;;;;;;;;;;6117734;23;20253;-89
2021/04/21 00:46:25;;;;;;;53.00;17.83;;;;;;;;;;6117217;23;20241;-89
2021/04/21 00:49:34;;;;;;;48.37;17.67;;;;;;;;;;6117615;23;20220;-89
2021/04/21 00:52:47;;;;;;;55.70;17.60;;;;;;;;;;6117740;23;20229;-91
2021/04/21 00:55:58;;;;;;;42.50;18.30;;;;;;;;;;6116766;23;20229;-90
2021/04/21 00:59:09;;;;;;;43.20;18.87;;;;;;;;;;6116936;23;20198;-88
2021/04/21 01:02:14;;;;;;;83.27;19.67;;;;;;;;;;6116218;23;20178;-89
2021/04/21 01:05:23;;;;;;;53.97;18.57;;;;;;;;;;6117147;23;20177;-90
2021/04/21 01:08:31;;;;;;;46.83;18.47;;;;;;;;;;6116106;23;20245;-90
2021/04/21 01:11:39;;;;;;;45.80;18.73;;;;;;;;;;6118564;23;20181;-90
2021/04/21 01:14:46;;;;;;;59.17;17.23;;;;;;;;;;6118442;23;20213;-90
2021/04/21 01:17:53;;;;;;;40.87;16.73;;;;;;;;;;6118401;23;20156;-91
2021/04/21 01:20:58;;;;;;;88.90;19.20;;;;;;;;;;6118619;23;20169;-91
2021/04/21 01:24:12;;;;;;;59.27;18.97;;;;;;;;;;6117319;23;20669;-89
2021/04/21 01:27:19;;;;;;;64.00;17.17;;;;;;;;;;6118336;23;20169;-89
2021/04/21 01:30:26;;;;;;;67.60;18.20;;;;;;;;;;6117468;23;20165;-88
2021/04/21 01:33:31;;;;;;;52.33;18.37;;;;;;;;;;6117910;23;20190;-88
2021/04/21 01:36:37;;;;;;;57.23;18.43;;;;;;;;;;6118543;23;20641;-90
2021/04/21 01:39:44;;;;;;;37.07;18.13;;;;;;;;;;6116855;23;20224;-90
2021/04/21 01:42:50;;;;;;;71.40;16.47;;;;;;;;;;6118597;23;20160;-89
2021/04/21 01:45:57;;;;;;;57.90;16.67;;;;;;;;;;6118097;23;20169;-90
2021/04/21 01:49:02;;;;;;;68.93;16.63;;;;;;;;;;6119272;23;20169;-90
2021/04/21 01:52:10;;;;;;;50.33;17.63;;;;;;;;;;6118859;23;20196;-90
2021/04/21 01:55:27;;;;;;;50.50;17.27;;;;;;;;;;6118627;23;20395;-90
2021/04/21 01:58:33;;;;;;;45.03;16.80;;;;;;;;;;6117801;23;20225;-90
2021/04/21 02:01:44;;;;;;;46.13;17.87;;;;;;;;;;6119096;23;20227;-89
2021/04/21 02:04:55;;;;;;;64.73;18.57;;;;;;;;;;6119693;23;20202;-90
2021/04/21 02:08:05;;;;;;;63.33;17.37;;;;;;;;;;6119972;23;20169;-88
2021/04/21 02:11:13;;;;;;;60.90;17.93;;;;;;;;;;6118870;23;20177;-89
2021/04/21 02:14:22;;;;;;;51.77;17.80;;;;;;;;;;6118638;23;20193;-90
2021/04/21 02:17:32;;;;;;;107.60;19.40;;;;;;;;;;6117783;23;20178;-89
2021/04/21 02:20:41;;;;;;;57.30;17.73;;;;;;;;;;6118434;23;20565;-91
2021/04/21 02:23:49;;;;;;;72.47;16.67;;;;;;;;;;6136402;23;20173;-90
2021/04/21 02:26:58;;;;;;;49.70;17.03;;;;;;;;;;6118862;23;20172;-91
2021/04/21 02:30:05;;;;;;;49.07;17.00;;;;;;;;;;6120458;23;20213;-89
2021/04/21 02:33:14;;;;;;;66.33;16.07;;;;;;;;;;6119184;23;20173;-87
2021/04/21 02:36:24;;;;;;;81.97;16.20;;;;;;;;;;6118875;23;20245;-87
2021/04/21 02:39:31;;;;;;;115.57;16.73;;;;;;;;;;6119755;23;20586;-88
2021/04/21 02:42:38;;;;;;;41.33;16.47;;;;;;;;;;6120523;23;20157;-89
2021/04/21 02:45:46;;;;;;;38.00;16.80;;;;;;;;;;6119588;23;20220;-89
2021/04/21 02:48:54;;;;;;;46.90;16.43;;;;;;;;;;6120809;23;20173;-89
2021/04/21 02:52:05;;;;;;;75.77;16.10;;;;;;;;;;6115740;23;20221;-89
2021/04/21 02:55:16;;;;;;;40.67;15.90;;;;;;;;;;6120608;23;20813;-91
2021/04/21 02:58:26;;;;;;;59.07;16.07;;;;;;;;;;6121097;23;20208;-89
2021/04/21 03:01:34;;;;;;;39.93;14.20;;;;;;;;;;6137900;23;20158;-90
2021/04/21 03:04:44;;;;;;;47.80;14.30;;;;;;;;;;6120425;23;20197;-90
2021/04/21 03:07:52;;;;;;;37.93;15.13;;;;;;;;;;6121267;23;20220;-88
2021/04/21 03:11:00;;;;;;;39.67;13.07;;;;;;;;;;6138576;23;20169;-89
2021/04/21 03:14:09;;;;;;;44.87;14.37;;;;;;;;;;6121139;23;20177;-87
2021/04/21 03:17:13;;;;;;;41.07;15.13;;;;;;;;;;6119123;23;20186;-88
2021/04/21 03:20:20;;;;;;;36.03;14.53;;;;;;;;;;6120108;23;20192;-87
2021/04/21 03:23:26;;;;;;;37.67;14.27;;;;;;;;;;6119713;23;20226;-91
2021/04/21 03:26:31;;;;;;;53.10;15.37;;;;;;;;;;6119121;23;20188;-89
2021/04/21 03:29:37;;;;;;;67.13;17.07;;;;;;;;;;6118859;23;20172;-91
2021/04/21 03:32:44;;;;;;;45.13;15.23;;;;;;;;;;6117346;23;20173;-91
2021/04/21 03:35:51;;;;;;;58.13;15.97;;;;;;;;;;6116209;23;20168;-88
2021/04/21 03:38:56;;;;;;;44.77;17.10;;;;;;;;;;6116138;23;20193;-90
2021/04/21 03:42:00;;;;;;;85.40;15.80;;;;;;;;;;6117642;23;20169;-88
2021/04/21 03:45:05;;;;;;;42.77;15.50;;;;;;;;;;6117791;23;20632;-90
2021/04/21 03:48:10;;;;;;;71.90;15.43;;;;;;;;;;6118644;23;20173;-90
2021/04/21 03:51:17;;;;;;;33.27;14.27;;;;;;;;;;6117604;23;20207;-87
2021/04/21 03:54:22;;;;;;;54.30;15.50;;;;;;;;;;6136561;23;20517;-90
2021/04/21 03:57:28;;;;;;;47.03;16.23;;;;;;;;;;6117673;23;20164;-91
2021/04/21 04:01:00;;;;;;;70.07;15.20;;;;;;;;;;6117876;23;20201;-90
2021/04/21 04:04:07;;;;;;;41.93;15.70;;;;;;;;;;6115756;23;20170;-89
2021/04/21 04:07:14;;;;;;;43.20;15.23;;;;;;;;;;6117533;23;20664;-89
2021/04/21 04:10:20;;;;;;;46.03;14.80;;;;;;;;;;6116353;23;20180;-90
2021/04/21 04:13:26;;;;;;;115.27;15.93;;;;;;;;;;6116274;23;20172;-90
2021/04/21 04:16:31;;;;;;;53.33;16.17;;;;;;;;;;6116332;23;20249;-89
2021/04/21 04:19:37;;;;;;;34.77;16.03;;;;;;;;;;6116249;23;20192;-87
2021/04/21 04:22:45;;;;;;;60.30;15.80;;;;;;;;;;6117514;23;20172;-89
2021/04/21 04:25:53;;;;;;;65.93;15.60;;;;;;;;;;6117967;23;20298;-90
2021/04/21 04:28:58;;;;;;;66.40;14.87;;;;;;;;;;6118465;23;20240;-90
2021/04/21 04:32:03;;;;;;;94.70;14.73;;;;;;;;;;6117809;23;20193;-90
2021/04/21 04:35:09;;;;;;;147.50;17.33;;;;;;;;;;6116029;23;20621;-89
2021/04/21 04:38:15;;;;;;;98.80;15.97;;;;;;;;;;6116529;23;20196;-89
2021/04/21 04:41:19;;;;;;;88.33;15.67;;;;;;;;;;6116912;23;20173;-90
2021/04/21 04:44:24;;;;;;;49.27;15.80;;;;;;;;;;6116753;23;20173;-91
2021/04/21 04:47:30;;;;;;;55.83;16.73;;;;;;;;;;6120405;23;20225;-90
2021/04/21 04:50:35;;;;;;;71.00;14.80;;;;;;;;;;6118397;23;20212;-89
2021/04/21 04:53:41;;;;;;;50.47;15.37;;;;;;;;;;6124322;23;20153;-91
2021/04/21 04:56:46;;;;;;;41.03;15.40;;;;;;;;;;6120159;23;20197;-91
2021/04/21 04:59:50;;;;;;;62.07;14.60;;;;;;;;;;6120107;23;20552;-90
2021/04/21 05:02:56;;;;;;;85.23;15.17;;;;;;;;;;6120680;23;20177;-91
2021/04/21 05:06:02;;;;;;;39.97;14.73;;;;;;;;;;6119107;23;20169;-90
2021/04/21 05:09:19;;;;;;;49.20;14.37;;;;;;;;;;6118487;23;20193;-89
2021/04/21 05:12:26;;;;;;;58.20;15.17;;;;;;;;;;6120142;23;20193;-90
2021/04/21 05:15:50;;;;;;;32.20;13.77;;;;;;;;;;6122057;23;20566;-88
2021/04/21 05:19:15;;;;;;;39.97;14.73;;;;;;;;;;6136191;23;20201;-89
2021/04/21 05:22:38;;;;;;;31.83;14.40;;;;;;;;;;6123505;23;20173;-90
2021/04/21 05:26:01;;;;;;;41.93;14.07;;;;;;;;;;6119984;23;20166;-91
2021/04/21 05:29:24;;;;;;;59.57;14.67;;;;;;;;;;6119790;23;20186;-92
2021/04/21 05:32:40;;;;;;;34.03;15.13;;;;;;;;;;6120178;23;20255;-90
2021/04/21 05:36:06;;;;;;;76.53;13.93;;;;;;;;;;6121446;23;20241;-91
2021/04/21 05:39:26;;;;;;;31.83;13.53;;;;;;;;;;6121003;23;20237;-89
2021/04/21 05:42:49;;;;;;;33.83;15.53;;;;;;;;;;6121250;23;20182;-90
2021/04/21 05:46:17;;;;;;;29.83;13.97;;;;;;;;;;6138151;23;20221;-91
2021/04/21 05:49:41;;;;;;;29.80;14.03;;;;;;;;;;6121662;23;20173;-90
2021/04/21 05:53:09;;;;;;;36.40;14.80;;;;;;;;;;6121713;23;20352;-91
2021/04/21 05:56:28;;;;;;;26.80;13.77;;;;;;;;;;6119959;23;20237;-89
2021/04/21 05:59:51;;;;;;;28.53;13.47;;;;;;;;;;6121800;23;20520;-91
2021/04/21 06:02:55;;;;;;;30.93;14.40;;;;;;;;;;6120538;23;20161;-86
2021/04/21 06:52:51;;;;;;;106.63;19.07;;;;;;;;;;4766915;22;20333;-91
2021/04/21 08:42:55;;;;;;;26.17;16.75;;;;;;;;;;6184399;22;1714665;-91
2021/04/21 08:46:00;;;;;;;25.45;15.55;;;;;;;;;;6211265;23;20529;-91
2021/04/21 08:53:22;;;;;;;24.30;14.75;;;;;;;;;;6229542;23;20224;-91
2021/04/21 08:56:26;;;;;;;20.80;13.70;;;;;;;;;;6228990;23;20167;-92
2021/04/21 08:59:32;;;;;;;30.55;16.38;;;;;;;;;;6215348;23;20167;-92
2021/04/21 09:02:37;;;;;;;24.30;14.20;;;;;;;;;;6211826;23;20613;-90
2021/04/21 09:05:42;;;;;;;23.38;14.43;;;;;;;;;;6213449;23;20222;-90
2021/04/21 09:08:48;;;;;;;24.88;15.68;;;;;;;;;;6213289;23;20179;-91
2021/04/21 09:11:52;;;;;;;23.98;14.85;;;;;;;;;;6212734;23;20174;-93
2021/04/21 09:14:57;;;;;;;24.05;15.73;;;;;;;;;;6212176;23;20199;-90
2021/04/21 09:18:02;;;;;;;23.65;15.02;;;;;;;;;;6209128;23;20199;-90
2021/04/21 09:21:07;;;;;;;31.75;14.93;;;;;;;;;;6210842;23;20175;-92
2021/04/21 09:24:26;;;;;;;25.92;15.25;;;;;;;;;;6211498;23;20179;-94
2021/04/21 09:27:33;;;;;;;28.13;15.95;;;;;;;;;;6211447;23;20167;-92
2021/04/21 09:30:40;;;;;;;24.35;16.20;;;;;;;;;;6211720;23;20584;-91
2021/04/21 09:33:46;;;;;;;27.17;15.93;;;;;;;;;;6209593;23;20254;-92
2021/04/21 09:36:50;;;;;;;29.70;16.95;;;;;;;;;;6207990;23;20166;-90
2021/04/21 09:39:58;;;;;;;24.55;15.73;;;;;;;;;;6209150;23;20293;-91
2021/04/21 09:43:03;;;;;;;21.90;15.63;;;;;;;;;;6198121;23;20241;-93
2021/04/21 09:46:17;;;;;;;25.48;15.35;;;;;;;;;;6198050;23;20195;-92
2021/04/21 09:49:32;;;;;;;24.10;15.15;;;;;;;;;;6196684;23;20200;-93
2021/04/21 09:52:37;;;;;;;22.92;14.95;;;;;;;;;;6195552;23;20242;-93
2021/04/21 09:55:41;;;;;;;22.70;15.02;;;;;;;;;;6195042;23;20487;-89
2021/04/21 09:58:47;;;;;;;25.20;14.82;;;;;;;;;;6195683;23;20171;-92
2021/04/21 10:01:52;;;;;;;21.73;14.98;;;;;;;;;;6196814;23;20191;-92
2021/04/21 10:04:57;;;;;;;24.42;15.13;;;;;;;;;;6198166;23;20191;-92
2021/04/21 10:08:15;;;;;;;24.42;14.43;;;;;;;;;;6199445;23;20620;-91
2021/04/21 10:11:20;;;;;;;22.73;13.50;;;;;;;;;;6199278;23;20217;-91
2021/04/21 10:14:24;;;;;;;19.05;13.93;;;;;;;;;;6200944;23;20574;-92
2021/04/21 10:17:30;;;;;;;23.60;14.00;;;;;;;;;;6198914;23;20171;-92
2021/04/21 10:20:35;;;;;;;19.70;13.68;;;;;;;;;;6200973;23;20203;-92
2021/04/21 10:23:40;;;;;;;21.63;15.10;;;;;;;;;;6201738;23;20156;-92
2021/04/21 10:26:45;;;;;;;23.45;15.10;;;;;;;;;;6198426;23;20180;-94
2021/04/21 10:29:50;;;;;;;21.35;14.77;;;;;;;;;;6200108;23;20188;-93
2021/04/21 10:32:55;;;;;;;23.25;15.20;;;;;;;;;;6200856;23;20225;-90
2021/04/21 10:36:00;;;;;;;23.83;16.20;;;;;;;;;;6201901;23;20172;-91
2021/04/21 10:39:05;;;;;;;28.15;15.77;;;;;;;;;;6200378;23;20163;-92
2021/04/21 10:42:11;;;;;;;22.08;14.85;;;;;;;;;;6203074;23;20176;-92
2021/04/21 10:45:16;;;;;;;27.65;15.05;;;;;;;;;;6213248;23;20202;-91
2021/04/21 10:48:42;;;;;;;26.20;15.65;;;;;;;;;;6210666;23;20179;-92
2021/04/21 10:51:48;;;;;;;24.83;14.57;;;;;;;;;;6211939;23;20219;-93
2021/04/21 10:54:53;;;;;;;24.58;16.20;;;;;;;;;;6213089;23;20246;-91
2021/04/21 10:57:58;;;;;;;25.63;16.40;;;;;;;;;;6209926;23;20218;-92
2021/04/21 11:01:23;;;;;;;24.55;16.38;;;;;;;;;;6210245;23;20202;-92
2021/04/21 11:04:52;;;;;;;35.13;16.60;;;;;;;;;;6210824;23;20259;-94
2021/04/21 11:08:01;;;;;;;26.95;16.52;;;;;;;;;;6213530;23;20163;-92
2021/04/21 11:11:08;;;;;;;27.40;16.00;;;;;;;;;;6212307;23;20158;-94
2021/04/21 11:23:03;;;;;;;25.30;17.13;;;;;;;;;;6224546;22;20227;-92
2021/04/21 11:26:27;;;;;;;28.25;16.83;;;;;;;;;;6210872;23;20213;-92
2021/04/21 11:29:45;;;;;;;36.78;16.98;;;;;;;;;;6211901;23;20215;-90
2021/04/21 11:32:50;;;;;;;25.30;16.80;;;;;;;;;;6212836;23;20287;-91
2021/04/21 11:35:55;;;;;;;27.25;16.15;;;;;;;;;;6218187;23;20158;-92
2021/04/21 11:39:01;;;;;;;26.23;15.35;;;;;;;;;;6214026;23;20698;-91
2021/04/21 11:42:19;;;;;;;31.20;16.15;;;;;;;;;;6213034;23;20171;-92
2021/04/21 11:45:30;;;;;;;29.95;16.88;;;;;;;;;;6215843;23;20199;-92
2021/04/21 11:48:39;;;;;;;27.25;15.85;;;;;;;;;;6216309;23;20224;-90
2021/04/21 11:51:47;;;;;;;34.15;17.33;;;;;;;;;;6216631;22;20175;-91
2021/04/21 11:54:52;;;;;;;28.00;18.52;;;;;;;;;;6214904;23;20194;-92
2021/04/21 11:57:58;;;;;;;33.78;17.77;;;;;;;;;;6214413;22;20163;-90
2021/04/21 12:01:04;;;;;;;32.08;17.48;;;;;;;;;;6214555;22;20247;-90
2021/04/21 12:04:11;;;;;;;31.10;16.98;;;;;;;;;;6214951;22;20385;-92
2021/04/21 12:07:19;;;;;;;29.13;16.08;;;;;;;;;;6214909;23;20171;-91
2021/04/21 12:10:30;;;;;;;36.83;15.00;;;;;;;;;;6215918;23;20196;-89
2021/04/21 12:13:35;;;;;;;23.83;15.20;;;;;;;;;;6217100;22;20422;-90
2021/04/21 12:16:40;;;;;;;28.98;15.90;;;;;;;;;;6214299;23;20195;-91
2021/04/21 12:19:49;;;;;;;35.25;15.68;;;;;;;;;;6217994;23;20226;-91
2021/04/21 12:22:55;;;;;;;28.60;16.15;;;;;;;;;;6232264;23;20191;-91
2021/04/21 12:29:22;;;;;;;28.83;15.93;;;;;;;;;;6236821;22;20175;-91
2021/04/21 12:32:27;;;;;;;38.15;17.42;;;;;;;;;;6233617;22;20168;-89
2021/04/21 12:35:32;;;;;;;28.67;15.38;;;;;;;;;;6234920;22;20175;-91
2021/04/21 12:38:37;;;;;;;31.98;15.75;;;;;;;;;;6233714;22;20207;-92
2021/04/21 12:41:45;;;;;;;24.20;14.15;;;;;;;;;;6234255;22;20167;-92
2021/04/21 12:44:49;;;;;;;26.88;14.80;;;;;;;;;;6234135;22;20248;-90
2021/04/21 12:47:55;;;;;;;27.83;15.05;;;;;;;;;;6234365;23;20171;-91
2021/04/21 12:51:00;;;;;;;30.90;13.38;;;;;;;;;;6233585;22;20164;-91
2021/04/21 13:14:14;;;;;;;27.15;15.35;;;;;;;;;;6169370;22;20302;-91
2021/04/21 13:17:21;;;;;;;21.95;13.20;;;;;;;;;;6210588;23;20186;-91
2021/04/21 13:20:37;;;;;;;21.00;11.15;;;;;;;;;;6211173;23;20191;-90
2021/04/21 13:23:51;;;;;;;25.00;12.55;;;;;;;;;;6209610;23;20168;-91
2021/04/21 13:26:56;;;;;;;20.73;12.25;;;;;;;;;;6230094;22;20171;-91
2021/04/21 13:30:05;;;;;;;25.23;11.90;;;;;;;;;;6211906;23;20669;-88
2021/04/21 13:33:10;;;;;;;27.60;13.88;;;;;;;;;;6212352;23;20167;-88
2021/04/21 13:36:16;;;;;;;27.10;14.70;;;;;;;;;;6213601;23;20170;-92
2021/04/21 13:39:23;;;;;;;25.60;15.32;;;;;;;;;;6211508;23;20152;-90
2021/04/21 13:42:28;;;;;;;21.35;12.18;;;;;;;;;;6213306;23;20167;-89
2021/04/21 13:45:33;;;;;;;27.13;14.43;;;;;;;;;;6211449;23;20211;-92
2021/04/21 13:48:38;;;;;;;26.85;13.85;;;;;;;;;;6210154;23;20162;-92
2021/04/21 13:52:10;;;;;;;30.02;14.23;;;;;;;;;;6212986;23;20219;-92
2021/04/21 13:55:17;;;;;;;36.45;15.00;;;;;;;;;;6211604;23;20179;-90
2021/04/21 13:58:24;;;;;;;25.08;14.13;;;;;;;;;;6213635;23;20171;-93
2021/04/21 14:01:31;;;;;;;27.95;13.93;;;;;;;;;;6213917;23;20171;-89
2021/04/21 14:04:35;;;;;;;35.05;15.55;;;;;;;;;;6211598;23;20171;-90
2021/04/21 14:07:41;;;;;;;27.67;15.18;;;;;;;;;;6212009;22;20220;-89
2021/04/21 14:10:45;;;;;;;25.30;14.38;;;;;;;;;;6230718;22;20195;-91
2021/04/21 14:13:50;;;;;;;25.23;15.70;;;;;;;;;;6212988;23;20166;-90
2021/04/21 14:16:56;;;;;;;31.15;14.57;;;;;;;;;;6215188;23;20179;-91
2021/04/21 14:20:02;;;;;;;33.55;15.60;;;;;;;;;;6214359;23;20232;-91
2021/04/21 14:23:07;;;;;;;38.65;17.67;;;;;;;;;;6215073;23;20203;-90
2021/04/21 14:26:12;;;;;;;38.33;18.48;;;;;;;;;;6214949;22;20252;-88
2021/04/21 14:29:17;;;;;;;35.25;18.42;;;;;;;;;;6215709;22;20211;-91
2021/04/21 14:32:23;;;;;;;31.08;17.52;;;;;;;;;;6210638;23;20183;-94
2021/04/21 14:35:28;;;;;;;27.65;14.32;;;;;;;;;;6209219;23;20210;-93
2021/04/21 14:38:33;;;;;;;25.42;13.68;;;;;;;;;;6209946;23;20265;-91
2021/04/21 14:41:38;;;;;;;21.70;11.40;;;;;;;;;;6209529;22;20182;-91
2021/04/21 14:44:43;;;;;;;22.15;11.35;;;;;;;;;;6208631;22;20166;-91
2021/04/21 14:47:48;;;;;;;23.80;10.35;;;;;;;;;;6213175;23;20170;-90
2021/04/21 14:50:54;;;;;;;18.35;9.07;;;;;;;;;;6209793;23;20162;-91
2021/04/21 14:53:58;;;;;;;15.98;7.57;;;;;;;;;;6209763;23;20156;-89
2021/04/21 14:57:06;;;;;;;13.68;6.85;;;;;;;;;;6210622;23;20291;-91
2021/04/21 15:00:11;;;;;;;8.80;5.63;;;;;;;;;;6211213;22;20196;-90
2021/04/21 15:03:17;;;;;;;8.98;4.22;;;;;;;;;;6211499;22;20210;-90
2021/04/21 15:06:21;;;;;;;9.23;4.90;;;;;;;;;;6212095;23;20618;-90
2021/04/21 15:09:26;;;;;;;10.27;5.97;;;;;;;;;;6212802;23;20654;-89
2021/04/21 15:12:30;;;;;;;13.15;6.90;;;;;;;;;;6212087;23;20167;-92
2021/04/21 15:15:35;;;;;;;20.70;9.35;;;;;;;;;;6223103;23;20242;-91
2021/04/21 15:18:41;;;;;;;17.63;9.48;;;;;;;;;;6229185;22;20212;-92
2021/04/21 15:21:49;;;;;;;21.92;11.82;;;;;;;;;;6229400;22;20162;-92
2021/04/21 15:24:53;;;;;;;23.40;11.88;;;;;;;;;;6228923;22;20190;-92
2021/04/21 15:28:00;;;;;;;20.55;12.00;;;;;;;;;;6229961;22;20159;-92
2021/04/21 15:31:05;;;;;;;22.67;12.18;;;;;;;;;;6229292;22;20163;-92
2021/04/21 15:34:11;;;;;;;23.77;10.88;;;;;;;;;;6228583;23;20158;-91
2021/04/21 15:37:20;;;;;;;19.42;11.13;;;;;;;;;;6230273;22;20224;-90
2021/04/21 15:40:25;;;;;;;17.58;9.98;;;;;;;;;;6230964;23;20180;-89
2021/04/21 15:43:29;;;;;;;19.55;9.07;;;;;;;;;;6230920;22;20282;-92
2021/04/21 15:46:34;;;;;;;17.73;8.50;;;;;;;;;;6229735;22;20246;-91
2021/04/21 15:49:42;;;;;;;14.20;7.50;;;;;;;;;;6228533;22;20167;-92
2021/04/21 15:52:47;;;;;;;14.30;6.80;;;;;;;;;;6230674;22;20183;-91
2021/04/21 15:55:52;;;;;;;13.05;5.38;;;;;;;;;;6231097;23;20228;-90
2021/04/21 15:58:57;;;;;;;8.77;4.38;;;;;;;;;;6231149;23;20179;-90
2021/04/21 16:02:02;;;;;;;10.35;5.82;;;;;;;;;;6234096;23;20167;-89
2021/04/21 16:05:20;;;;;;;11.65;5.80;;;;;;;;;;6233969;22;20214;-89
2021/04/21 16:08:24;;;;;;;15.20;4.95;;;;;;;;;;6234609;23;20180;-91
2021/04/21 16:11:29;;;;;;;9.23;5.00;;;;;;;;;;6233016;23;20171;-91
2021/04/21 16:14:34;;;;;;;12.70;5.18;;;;;;;;;;6232319;22;20218;-92
2021/04/21 16:17:38;;;;;;;7.70;4.97;;;;;;;;;;6216544;23;20168;-89
2021/04/21 16:20:44;;;;;;;13.82;7.05;;;;;;;;;;6215847;23;20295;-90
2021/04/21 16:23:48;;;;;;;15.65;7.07;;;;;;;;;;6214692;23;20187;-93
2021/04/21 16:26:53;;;;;;;7.63;4.72;;;;;;;;;;6213200;22;20226;-91
2021/04/21 16:29:58;;;;;;;8.18;4.70;;;;;;;;;;6215425;23;20186;-89
2021/04/21 16:33:04;;;;;;;12.73;5.03;;;;;;;;;;6213938;23;20209;-91
2021/04/21 16:36:10;;;;;;;14.82;5.80;;;;;;;;;;6212610;23;20175;-90
2021/04/21 16:39:16;;;;;;;10.43;5.93;;;;;;;;;;6216560;23;20170;-89
2021/04/21 16:42:22;;;;;;;10.80;5.53;;;;;;;;;;6213765;23;20194;-89
2021/04/21 16:45:27;;;;;;;14.23;6.22;;;;;;;;;;6215865;23;20186;-91
2021/04/21 16:48:33;;;;;;;12.88;6.32;;;;;;;;;;6213884;23;20649;-89
2021/04/21 16:51:40;;;;;;;15.93;7.10;;;;;;;;;;6215487;23;20182;-88
2021/04/21 16:54:47;;;;;;;22.38;9.27;;;;;;;;;;6213409;23;20171;-91
2021/04/21 16:57:52;;;;;;;16.10;5.85;;;;;;;;;;6213936;23;20167;-90
2021/04/21 17:00:58;;;;;;;10.20;5.40;;;;;;;;;;6215111;23;20163;-90
2021/04/21 17:04:04;;;;;;;16.77;5.70;;;;;;;;;;6215955;23;20199;-90
2021/04/21 17:07:09;;;;;;;11.25;5.70;;;;;;;;;;6216903;23;20190;-90
2021/04/21 17:10:15;;;;;;;12.73;5.10;;;;;;;;;;6216180;23;20171;-92
2021/04/21 17:13:20;;;;;;;12.63;6.10;;;;;;;;;;6215085;23;20220;-90
2021/04/21 17:16:25;;;;;;;13.32;7.03;;;;;;;;;;6214221;23;20605;-90
2021/04/21 17:19:31;;;;;;;13.25;5.78;;;;;;;;;;6212872;23;20186;-91
2021/04/21 17:22:37;;;;;;;10.60;6.05;;;;;;;;;;6213511;23;20226;-90
2021/04/21 17:25:42;;;;;;;13.15;5.40;;;;;;;;;;6212204;23;20214;-90
2021/04/21 17:28:47;;;;;;;16.70;7.65;;;;;;;;;;6212220;23;20172;-89
2021/04/21 17:31:55;;;;;;;9.95;5.80;;;;;;;;;;6210456;23;20175;-91
2021/04/21 17:34:59;;;;;;;8.43;5.38;;;;;;;;;;6208676;23;20163;-92
2021/04/21 17:38:05;;;;;;;11.38;5.18;;;;;;;;;;6210032;23;20542;-90
2021/04/21 17:41:11;;;;;;;21.10;5.68;;;;;;;;;;6209674;23;20166;-91
2021/04/21 17:44:16;;;;;;;11.57;4.80;;;;;;;;;;6208482;22;20163;-91
2021/04/21 17:47:22;;;;;;;9.40;5.32;;;;;;;;;;6210093;22;20191;-91
2021/04/21 17:50:27;;;;;;;15.18;5.47;;;;;;;;;;6213145;22;20163;-91
2021/04/21 17:53:33;;;;;;;13.10;6.03;;;;;;;;;;6209585;23;20291;-91
2021/04/21 17:56:38;;;;;;;12.10;5.43;;;;;;;;;;6209645;23;20175;-92
2021/04/21 17:59:42;;;;;;;12.15;5.38;;;;;;;;;;6208366;23;20223;-90
2021/04/21 18:02:47;;;;;;;9.23;5.60;;;;;;;;;;6211984;23;20187;-90
2021/04/21 18:05:53;;;;;;;12.70;6.07;;;;;;;;;;6212376;23;20179;-89
2021/04/21 19:43:19;;;;;;;18.27;8.77;;;;;;;;;;6203218;23;20221;-91
2021/04/21 19:46:27;;;;;;;17.20;9.07;;;;;;;;;;6184467;23;20195;-90
2021/04/21 19:49:32;;;;;;;18.43;8.53;;;;;;;;;;6197861;23;20167;-91
2021/04/21 19:52:39;;;;;;;18.57;9.07;;;;;;;;;;6180264;23;20164;-91
2021/04/21 19:55:44;;;;;;;18.90;9.50;;;;;;;;;;6180409;23;20191;-90
2021/04/21 19:58:49;;;;;;;22.87;10.57;;;;;;;;;;6180974;23;20192;-91
2021/04/21 20:01:54;;;;;;;20.63;10.00;;;;;;;;;;6198291;23;20191;-90
2021/04/21 20:04:58;;;;;;;20.57;10.23;;;;;;;;;;6180811;23;20502;-90
2021/04/21 20:08:04;;;;;;;25.10;10.83;;;;;;;;;;6198965;23;20224;-90
2021/04/21 20:11:08;;;;;;;19.43;10.60;;;;;;;;;;6201032;23;20256;-89
2021/04/21 20:14:14;;;;;;;17.77;8.93;;;;;;;;;;6200151;23;20175;-91
2021/04/21 20:17:19;;;;;;;19.80;10.10;;;;;;;;;;6181734;23;20179;-90
2021/04/21 20:20:24;;;;;;;15.97;8.90;;;;;;;;;;6200920;23;20148;-90
2021/04/21 20:23:28;;;;;;;17.73;9.10;;;;;;;;;;6201265;23;20200;-90
2021/04/21 20:26:35;;;;;;;17.17;8.43;;;;;;;;;;6201375;23;20226;-91
2021/04/21 20:29:40;;;;;;;20.50;9.57;;;;;;;;;;6184828;23;20184;-91
2021/04/21 20:32:44;;;;;;;14.93;8.27;;;;;;;;;;6199046;23;20175;-90
2021/04/21 20:35:49;;;;;;;21.77;10.23;;;;;;;;;;6183342;23;20211;-90
2021/04/21 20:38:54;;;;;;;18.03;9.27;;;;;;;;;;6198774;23;20175;-91
2021/04/21 20:41:59;;;;;;;17.80;8.63;;;;;;;;;;6199499;23;20191;-90
2021/04/21 20:45:05;;;;;;;14.50;8.20;;;;;;;;;;6182541;23;20191;-90
2021/04/21 20:48:10;;;;;;;15.17;7.83;;;;;;;;;;6210513;22;20215;-89
2021/04/21 20:51:15;;;;;;;14.93;8.30;;;;;;;;;;6210753;23;20226;-92
2021/04/21 20:54:19;;;;;;;27.67;12.27;;;;;;;;;;6214078;23;20239;-90
2021/04/21 20:57:24;;;;;;;17.53;8.93;;;;;;;;;;6210795;23;20670;-92
2021/04/21 21:00:31;;;;;;;19.13;9.07;;;;;;;;;;6209595;23;20190;-91
2021/04/21 21:03:35;;;;;;;20.63;8.13;;;;;;;;;;6209430;22;20163;-89
2021/04/21 21:06:40;;;;;;;19.50;9.83;;;;;;;;;;6209427;23;20194;-89
2021/04/21 21:09:45;;;;;;;19.37;9.10;;;;;;;;;;6210531;23;20175;-90
2021/04/21 21:12:50;;;;;;;20.10;9.10;;;;;;;;;;6208856;23;20239;-91
2021/04/21 21:15:55;;;;;;;22.03;10.20;;;;;;;;;;6209864;23;20221;-91
2021/04/21 21:18:59;;;;;;;21.93;9.60;;;;;;;;;;6210288;23;20147;-91
2021/04/21 21:22:05;;;;;;;20.67;9.27;;;;;;;;;;6209812;23;20198;-90
2021/04/21 21:25:11;;;;;;;18.63;8.53;;;;;;;;;;6212962;23;20175;-89
2021/04/21 21:28:15;;;;;;;18.90;9.10;;;;;;;;;;6212428;22;20593;-89
2021/04/21 21:31:21;;;;;;;16.30;8.77;;;;;;;;;;6211024;23;20167;-89
2021/04/21 21:34:26;;;;;;;17.97;9.20;;;;;;;;;;6210756;23;20175;-90
2021/04/21 21:37:31;;;;;;;19.57;8.50;;;;;;;;;;6211277;23;20167;-90
2021/04/21 21:40:36;;;;;;;16.47;8.87;;;;;;;;;;6208102;23;20214;-89
2021/04/21 21:43:40;;;;;;;15.30;7.97;;;;;;;;;;6208874;23;20175;-90
2021/04/21 21:46:47;;;;;;;16.23;8.50;;;;;;;;;;6210178;23;20191;-91
2021/04/21 21:49:52;;;;;;;18.10;8.63;;;;;;;;;;6223444;23;20226;-92
2021/04/21 21:52:57;;;;;;;16.43;8.50;;;;;;;;;;6228102;23;20235;-91
2021/04/21 21:56:02;;;;;;;16.20;8.30;;;;;;;;;;6228324;23;20166;-90
2021/04/21 21:59:08;;;;;;;16.10;8.17;;;;;;;;;;6228125;22;20163;-90
2021/04/21 22:02:27;;;;;;;15.87;8.03;;;;;;;;;;6227782;23;20243;-89
2021/04/21 22:05:32;;;;;;;16.50;8.50;;;;;;;;;;6228505;23;20256;-91
2021/04/21 22:08:38;;;;;;;16.43;8.40;;;;;;;;;;6228615;23;20187;-92
2021/04/21 22:11:42;;;;;;;15.90;8.73;;;;;;;;;;6226886;23;20639;-91
2021/04/21 22:14:47;;;;;;;17.00;8.63;;;;;;;;;;6226976;23;20167;-91
2021/04/21 22:17:52;;;;;;;14.77;8.33;;;;;;;;;;6225199;23;20496;-91
2021/04/21 22:20:57;;;;;;;17.53;8.57;;;;;;;;;;6226434;23;20167;-91
2021/04/21 22:24:01;;;;;;;17.27;8.83;;;;;;;;;;6223987;23;20267;-91
2021/04/21 22:27:06;;;;;;;16.47;8.03;;;;;;;;;;6224383;23;20218;-90
2021/04/21 22:30:12;;;;;;;19.93;9.17;;;;;;;;;;6224674;23;20171;-91
2021/04/21 22:33:18;;;;;;;16.67;9.23;;;;;;;;;;6222165;23;20171;-91
2021/04/21 22:36:23;;;;;;;17.53;9.27;;;;;;;;;;6223582;23;20219;-91
2021/04/21 22:39:27;;;;;;;15.87;8.80;;;;;;;;;;6223561;23;20178;-91
2021/04/21 22:42:31;;;;;;;16.93;9.10;;;;;;;;;;6223831;23;20187;-91
2021/04/21 22:45:36;;;;;;;16.70;9.47;;;;;;;;;;6222407;23;20190;-90
2021/04/21 22:48:41;;;;;;;18.17;9.67;;;;;;;;;;6223429;23;20190;-91
2021/04/21 22:51:46;;;;;;;17.97;9.77;;;;;;;;;;6205945;23;20191;-91
2021/04/21 22:54:50;;;;;;;19.27;9.10;;;;;;;;;;6204932;23;20187;-91
2021/04/21 22:57:54;;;;;;;18.83;9.60;;;;;;;;;;6206055;23;20163;-90
2021/04/21 23:00:58;;;;;;;18.23;9.13;;;;;;;;;;6205929;23;20174;-90